Terminal Aerodrome Forecast
Issued by NWS

Home | Current Version | Previous Version | Text Only | Print | Product List | Glossary On
Versions: 1 2 3 4 5 6 7 8 9 10 11 12 13 14 15 16 17 18 19 20 21 22 23 24 25 26 27 28 29 30 31 32 33 34 35 36 37 38 39 40 41 42 43 44 45 46 47 48 49 50
796
FTUS43 KDMX 172259 AAB
TAFFOD
TAF AMD
KFOD 172259Z 1723/1818 05006KT 2SM -DZ BR OVC004
     FM180200 01008KT P6SM OVC002
     FM180600 36011G17KT P6SM OVC006
     FM180800 35012KT 1 1/2SM -RA OVC007
     FM180900 35012KT 3SM -RASN OVC011
     FM181200 34015G24KT P6SM OVC040=

USA.gov is the U.S. government's official web portal to all federal, state and local government web resources and services.